A- A+ FrançaisEnglishEspañol中国

Services sur Internet Soldes sur Internet Des idées de cadeaux Météo Météo aéro

La météo à : Autours de vous Tarbes-Lourdes-PyrénéesRennes-St-Jacques Toussus-Le-NobleBasle-Mulhouse

La météo aéronautique pour les pilotes, la préparation du vol avec les METAR (METeorological Aerodrome Report, message d'observation des conditions météorologiques pour l'aviation) et Les TAF (Terminal Aerodrome Forecast : message de prévision à court terme des conditions météorologiques pour l'aviation). Et les autres ressources comme les VAC (Visual Approch Chart) et les NOTAM (Notice To Airman) pour préprer les vols.

Aéroport Port Harcourt (Nigéria) / OACI DNPO/ IATA PHC

L'altitude de l'aéroport Port Harcourt est de 27 m = 89 ft. Il est situé à proximité de Port Harcourt (Nigéria). La météo générale à 5 jours est disponible pour Orogbum situé à 25.9 km.

METAR de l'aéroport Port Harcourt - DNPO

DNPO 181700Z 25003KT 9999 TS SCT009 FEW019CB 29/26 Q1007 NOSIG

Décodage du METAR de l'aéroport Port Harcourt (NG)

METAR émis par DNPO le lundi 18 novembre 2019 à 17:00 heure TU. Attention ce METAR est obsolète car il a été émis il y a 4 heure et 45 minutes.

La visibilité est de supérieure à 10 km = supérieure à 6.2 sm.

La température est de 29°C = 84 °F et le point rosée est de 26°C = 79 °F . Ce qui correspond à 84% d'humidité relative.

Le QNH est de 1007 hPa = 29.74 inHg

Vent de 3 kt = 6 km/h, orienté à 250°.

Nuages : Nuages épars à 900 ft = 270 mètres. Quelques nuages à 1900 ft = 580 mètres.

TS

Aucun changement significatif dans les deux heures à venir

TAF de l'aéroport Port Harcourt - DNPO

DNPO 081100Z 0812/0918 18006KT 9999 BKN013 FEW020CB BECMG 0816/0820 SCT010 TEMPO 0904/0907 3000 BR PROB30 0905/0907 0800 FG BKN004

DNPO 081100Z 0812/0918 18006KT 9999 couverture nuageuse fragmentée à 013 quelques nuages à 020CB devenant 0816/0820 nuages épars à 010 temporairement 0904/0907 3000 brume probabilité de 30% d'avoir 0905/0907 0800 brouillard couverture nuageuse fragmentée à 004

Aéroport à proximité de Port Harcourt

Météo générale à 5 jours à Orogbum (25.9 km)Aéroport Owerri (54 km)Aéroport Calabar (155 km)Aéroport Enugu (176 km)Aéroport Benin City (208 km)Aéroport Malabo (240 km)Aéroport Mamfe (272 km)

Vue aérienne de l'aéroport Port Harcourt

NOTAM de l'aéroport Port Harcourt

Les NOTAM sont fournis sans aucune garantie de leur actualité. Le pilote est le seul responsable de la vérification de sa validité avant de l'utiliser opérationnellement pour préparer un vol ou l'utiliser lors de sa navigation.

Pas de NOTAM

Sources des données